15 Max
7 km/h
1 Mini

LFMY 230900Z AUTO 31004KT 250V350 9999 // NSC 25/14 Q1008

TAF LFMY 230800Z 2309/2409 VRB03KT CAVOK TX28/2312Z TN17/2405Z BECMG 2309/2310 21012KT BECMG 2320/2322 VRB02KT PROB40 TEMPO 2322/2403 BKN010 BECMG 2408/2409 31010G20KT